< Typhoon 198216 1982 Season Typhoon 198218 >
Typhoon 198217 (IRVING)
General InformationTrack Information on Google MapsDetailed Wind InformationList of All Images || Disaster Info.ResourceGoogle EarthGE AnimationAtom FeedGeoJSON
Detalied Best Track (Time Zone = UTC)
Year Month Day Hour Lat. Long. Pressure (hPa) Wind (kt) Class Image Chart
1982 9 5 06 13.3 132.2 1000 0 2 Image Chart
1982 9 5 12 13.6 131.3 998 0 2 Image Chart
1982 9 5 18 14.0 130.4 996 35 3 Image Chart
1982 9 6 00 14.3 129.5 996 35 3 Image Chart
1982 9 6 06 13.9 128.8 996 40 3 Image Chart
1982 9 6 12 13.4 128.2 996 40 3 Image Chart
1982 9 6 18 13.2 127.5 996 40 3 Image Chart
1982 9 7 00 13.2 127.0 996 40 3 Image Chart
1982 9 7 06 13.0 126.5 990 40 3 Image Chart
1982 9 7 12 13.0 126.2 985 55 4 Image Chart
1982 9 7 18 13.1 125.7 985 55 4 Image Chart
1982 9 8 00 13.1 125.2 985 55 4 Image Chart
1982 9 8 06 13.1 124.6 985 55 4 Image Chart
1982 9 8 12 13.0 124.0 985 50 4 Image Chart
1982 9 8 18 13.2 122.8 985 50 4 Image Chart
1982 9 9 00 13.3 121.5 985 50 4 Image Chart
1982 9 9 06 13.7 120.9 990 45 3 Image Chart
1982 9 9 12 14.1 120.3 990 45 3 Image Chart
1982 9 9 18 14.5 119.7 990 45 3 Image Chart
1982 9 10 00 14.9 119.1 990 45 3 Image Chart
1982 9 10 06 15.1 118.3 985 50 4 Image Chart
1982 9 10 12 15.3 117.5 980 50 4 Image Chart
1982 9 10 18 15.6 116.8 980 55 4 Image Chart
1982 9 11 00 15.8 115.9 980 55 4 Image Chart
1982 9 11 06 15.9 115.5 975 55 4 Image Chart
1982 9 11 12 16.0 115.0 965 55 4 Image Chart
1982 9 11 18 16.1 114.6 960 60 4 Image Chart
1982 9 12 00 16.3 114.1 955 60 4 Image Chart
1982 9 12 06 16.5 113.9 950 70 5 Image Chart
1982 9 12 12 17.2 113.6 950 85 5 Image Chart
1982 9 12 18 17.4 113.3 955 80 5 Image Chart
1982 9 13 00 17.6 113.1 955 80 5 Image Chart
1982 9 13 06 18.0 112.9 955 80 5 Image Chart
1982 9 13 12 18.5 112.6 960 75 5 Image Chart
1982 9 13 18 18.9 112.3 965 70 5 Image Chart
1982 9 14 00 19.2 112.1 970 65 5 Image Chart
1982 9 14 06 19.7 112.0 970 65 5 Image Chart
1982 9 14 12 20.0 111.7 975 65 5 Image Chart
1982 9 14 18 20.2 111.2 975 65 5 Image Chart
1982 9 15 00 20.5 110.2 980 55 4 Image Chart
1982 9 15 06 20.8 109.5 980 55 4 Image Chart
1982 9 15 12 21.2 108.7 980 55 4 Image Chart
1982 9 15 18 21.5 107.8 985 45 3 Image Chart
1982 9 16 00 21.7 107.0 990 40 3 Image Chart
1982 9 16 06 22.3 106.8 1000 0 2 Image Chart
1982 9 16 12 23.0 107.0 1008 0 2 Image Chart
Japan Meteorological Agency Best Track Data | Correction Date : 1992-10-21
< Typhoon 198216 1982 Season Typhoon 198218 >

Help